Flight Track Log - Related Links

Times and Time Zones

All times are in EST time to prevent confusion due to time zone crossing. See the DAL1921 flight status page for this flight to view local times or setup timezone preferences in your user account.

Time Position Orientation Groundspeed Altitude Reporting Facility
EST Latitude Longitude Course Direction KTS MPH feet Rate Location/Type
Wed 08:58:47 AM 42.1972 -83.3742 181° South 174 200 1,600  Level Cleveland Center
Wed 08:59:55 AM 42.1492 -83.4239 217° Southwest 226 260 3,800 1,906 Climbing Cleveland Center
Wed 09:00:12 AM 42.1408 -83.4356 226° Southwest 213 245 4,300 2,656 Climbing Cleveland Center
Wed 09:00:56 AM 42.0942 -83.4836 217° Southwest 260 299 6,500 2,516 Climbing Cleveland Center
Wed 09:01:00 AM 42.1428 -83.7957 211° Southwest  Level Estimated
Wed 09:01:14 AM 42.0900 -83.4892 225° Southwest 242 278 6,900  Level Cleveland Center
Wed 09:02:00 AM 42.1192 -83.9429 209° Southwest  Level Estimated
Wed 09:02:16 AM 42.0153 -83.5572 214° Southwest 277 319 9,700  Level Cleveland Center
Wed 09:03:00 AM 42.0076 -83.9468 181° South  Level FlightAware Approximate
Wed 09:03:18 AM 41.9400 -83.6094 207° Southwest 299 344 11,900  Level Cleveland Center
Wed 09:04:00 AM 41.8959 -83.9507 181° South  Level FlightAware Approximate
Wed 09:04:20 AM 41.8617 -83.6631 207° Southwest 339 390 13,800  Level Cleveland Center
Wed 09:05:22 AM 41.7508 -83.7428 208° Southwest 378 435 15,700 1,984 Climbing Cleveland Center
Wed 09:06:24 AM 41.6508 -83.8142 208° Southwest 404 465 17,900 1,790 Climbing Cleveland Center
Wed 09:07:26 AM 41.5514 -83.8931 211° Southwest 412 474 19,400 1,632 Climbing Cleveland Center
Wed 09:08:29 AM 41.4508 -83.9733 211° Southwest 422 486 21,300 1,728 Climbing Cleveland Center
Wed 09:09:31 AM 41.3319 -84.0672 211° Southwest 432 497 23,000 1,500 Climbing Cleveland Center
Wed 09:10:33 AM 41.2394 -84.1711 220° Southwest 441 507 24,400 1,306 Climbing Cleveland Center
Wed 09:11:35 AM 41.2000 -84.3258 251° West 442 509 25,700 1,210 Climbing Cleveland Center
Wed 09:12:37 AM 41.1603 -84.4828 251° West 445 512 26,900 1,403 Climbing Cleveland Center
Wed 09:13:39 AM 41.1203 -84.6381 251° West 445 512 28,600 1,581 Climbing Cleveland Center
Wed 09:15:05 AM 41.0658 -84.8494 251° West 433 498 30,800 1,378 Climbing Chicago Center
Wed 09:16:07 AM 41.0289 -84.9956 252° West 422 486 32,000 1,065 Climbing Chicago Center
Wed 09:17:09 AM 40.9756 -85.1686 248° West 422 486 33,000 532 Climbing Chicago Center
Wed 09:18:11 AM 40.9078 -85.2961 235° Southwest 423 487 33,100 290 Climbing Chicago Center
Wed 09:19:13 AM 40.8889 -85.4500 261° West 426 490 33,600 677 Climbing Chicago Center
Wed 09:20:15 AM 40.8731 -85.5994 262° West 415 478 34,500 968 Climbing Chicago Center
Wed 09:21:17 AM 40.8583 -85.7514 263° West 415 478 35,600 677 Climbing Chicago Center
Wed 09:22:19 AM 40.8428 -85.9006 262° West 413 475 35,900 194 Climbing Chicago Center
Wed 09:23:21 AM 40.8269 -86.0511 262° West 413 475 36,000 48 Climbing Chicago Center
Wed 09:24:24 AM 40.8078 -86.2319 262° West 415 478 36,000  Level Chicago Center
Wed 09:25:26 AM 40.7919 -86.3817 262° West 413 475 36,000  Level Chicago Center
Wed 09:26:28 AM 40.7756 -86.5322 262° West 414 476 36,000  Level Chicago Center
Wed 09:27:30 AM 40.7589 -86.6800 262° West 411 473 36,000  Level Chicago Center
Wed 09:28:32 AM 40.7422 -86.8261 261° West 405 466 36,000  Level Chicago Center
Wed 09:29:34 AM 40.7219 -86.9717 260° West 403 464 36,000  Level Chicago Center
Wed 09:30:36 AM 40.6878 -87.1447 255° West 406 467 36,000  Level Chicago Center
Wed 09:31:38 AM 40.6606 -87.2900 256° West 407 468 36,000  Level Chicago Center
Wed 09:32:40 AM 40.6328 -87.4364 256° West 410 472 36,000  Level Chicago Center
Wed 09:33:42 AM 40.6047 -87.5825 256° West 410 472 36,000  Level Chicago Center
Wed 09:34:44 AM 40.5769 -87.7297 256° West 414 476 36,000  Level Chicago Center
Wed 09:35:46 AM 40.5489 -87.8753 256° West 413 475 36,000  Level Chicago Center
Wed 09:36:49 AM 40.5153 -88.0500 256° West 411 473 36,000  Level Chicago Center
Wed 09:37:51 AM 40.4861 -88.1953 255° West 411 473 36,000  Level Chicago Center
Wed 09:38:53 AM 40.4578 -88.3417 256° West 413 475 36,000  Level Chicago Center
Wed 09:39:55 AM 40.4258 -88.5019 255° West 411 473 36,000  Level Chicago Center
Wed 09:40:57 AM 40.3972 -88.6469 256° West 411 473 36,000  Level Chicago Center
Wed 09:41:59 AM 40.3683 -88.7925 255° West 412 474 36,000  Level Chicago Center
Wed 09:43:01 AM 40.3364 -88.9386 254° West 416 479 36,000  Level Chicago Center
Wed 09:44:03 AM 40.3078 -89.0842 256° West 414 476 36,000  Level Chicago Center
Wed 09:45:05 AM 40.2769 -89.2283 254° West 410 472 36,000  Level Chicago Center
Wed 09:46:07 AM 40.2472 -89.3739 255° West 412 474 36,000 -48 Level Chicago Center
Wed 09:47:09 AM 40.2103 -89.5464 254° West 411 473 35,900 -48 Descending Chicago Center
Wed 09:48:12 AM 40.1803 -89.6892 255° West 408 470 35,900 48 Level Chicago Center
Wed 09:49:14 AM 40.1506 -89.8308 255° West 404 465 36,000 48 Climbing Chicago Center
Wed 09:50:16 AM 40.1192 -89.9722 254° West 403 464 36,000  Level Chicago Center
Wed 09:51:24 AM 40.0842 -90.1411 255° West 400 460 36,000 -46 Level Kansas City Center
Wed 09:52:26 AM 40.0544 -90.2800 254° West 398 458 35,900  Descending Kansas City Center
Wed 09:53:28 AM 40.0242 -90.4153 254° West 393 452 36,000 48 Climbing Kansas City Center
Wed 09:54:30 AM 39.9944 -90.5514 254° West 389 448 36,000  Level Kansas City Center
Wed 09:55:32 AM 39.9639 -90.6872 254° West 389 448 36,000  Level Kansas City Center
Wed 09:56:33 AM 39.9344 -90.8256 255° West 393 452 36,000  Level Kansas City Center
Wed 09:57:35 AM 39.9036 -90.9594 253° West 389 448 36,000  Level Kansas City Center
Wed 09:58:37 AM 39.8706 -91.1036 253° West 390 449 36,000  Level Kansas City Center
Wed 09:59:41 AM 39.8350 -91.2672 254° West 392 451 36,000 -48 Level Kansas City Center
Wed 10:00:43 AM 39.8036 -91.4033 253° West 394 453 35,900 -48 Descending Kansas City Center
Wed 10:01:46 AM 39.7717 -91.5392 253° West 395 455 35,900  Level Kansas City Center
Wed 10:02:48 AM 39.7403 -91.6744 253° West 394 453 35,900 48 Level Kansas City Center
Wed 10:03:50 AM 39.7083 -91.8083 253° West 392 451 36,000  Climbing Kansas City Center
Wed 10:04:52 AM 39.6783 -91.9422 254° West 389 448 35,900  Descending Kansas City Center
Wed 10:05:54 AM 39.6406 -92.1028 253° West 388 447 36,000 48 Climbing Kansas City Center
Wed 10:06:56 AM 39.6097 -92.2356 253° West 388 447 36,000  Level Kansas City Center
Wed 10:07:58 AM 39.5772 -92.3678 252° West 387 445 36,000  Level Kansas City Center
Wed 10:09:00 AM 39.5464 -92.5008 253° West 386 444 36,000 -48 Level Kansas City Center
Wed 10:10:02 AM 39.5144 -92.6311 252° West 385 443 35,900  Descending Kansas City Center
Wed 10:11:04 AM 39.4819 -92.7628 252° West 384 442 36,000 48 Climbing Kansas City Center
Wed 10:12:06 AM 39.4450 -92.9203 253° West 384 442 36,000 -48 Level Kansas City Center
Wed 10:13:08 AM 39.4119 -93.0531 252° West 382 440 35,900 -48 Descending Kansas City Center
Wed 10:14:10 AM 39.3789 -93.1789 251° West 382 440 35,900 48 Level Kansas City Center
Wed 10:15:12 AM 39.3472 -93.3100 253° West 384 442 36,000  Climbing Kansas City Center
Wed 10:16:14 AM 39.3167 -93.4453 254° West 391 450 35,900 -48 Descending Kansas City Center
Wed 10:17:16 AM 39.2753 -93.6028 251° West 389 448 35,900  Level Kansas City Center
Wed 10:18:18 AM 39.2433 -93.7289 252° West 390 449 35,900  Level Kansas City Center
Wed 10:19:20 AM 39.2061 -93.8747 252° West 384 442 35,900 48 Level Kansas City Center
Wed 10:20:22 AM 39.1794 -94.0014 255° West 375 432 36,000 48 Climbing Kansas City Center
Wed 10:21:24 AM 39.1606 -94.1483 261° West 380 437 36,000 -48 Level Kansas City Center
Wed 10:22:26 AM 39.1433 -94.2767 260° West 380 437 35,900  Descending Kansas City Center
Wed 10:23:28 AM 39.1253 -94.4067 260° West 384 442 36,000 48 Climbing Kansas City Center
Wed 10:24:31 AM 39.1042 -94.5586 260° West 385 443 36,000  Level Kansas City Center
Wed 10:25:33 AM 39.0867 -94.6883 260° West 384 442 36,000  Level Kansas City Center
Wed 10:26:35 AM 39.0664 -94.8406 260° West 386 444 36,000  Level Kansas City Center
Wed 10:27:37 AM 39.0478 -94.9711 260° West 386 444 36,000  Level Kansas City Center
Wed 10:28:39 AM 39.0064 -95.1194 250° West 392 451 36,000 -48 Level Kansas City Center
Wed 10:29:41 AM 38.9700 -95.2494 250° West 399 459 35,900 -48 Descending Kansas City Center
Wed 10:30:43 AM 38.9347 -95.3808 251° West 402 463 35,900  Level Kansas City Center
Wed 10:31:45 AM 38.8917 -95.5319 250° West 402 463 35,900  Level Kansas City Center
Wed 10:32:47 AM 38.8547 -95.6611 250° West 401 461 35,900  Level Kansas City Center
Wed 10:33:49 AM 38.8119 -95.8103 250° West 398 458 35,900  Level Kansas City Center
Wed 10:34:51 AM 38.7753 -95.9392 250° West 402 463 35,900 48 Level Kansas City Center
Wed 10:35:53 AM 38.7319 -96.0906 250° West 405 466 36,000  Climbing Kansas City Center
Wed 10:36:55 AM 38.6936 -96.2181 249° West 401 461 35,900 -48 Descending Kansas City Center
Wed 10:37:57 AM 38.6508 -96.3664 250° West 398 458 35,900  Level Kansas City Center
Wed 10:38:59 AM 38.6139 -96.4936 250° West 399 459 35,900  Level Kansas City Center
Wed 10:40:01 AM 38.5703 -96.6397 249° West 395 455 35,900  Level Kansas City Center
Wed 10:41:03 AM 38.5333 -96.7642 249° West 392 451 35,900  Level Kansas City Center
Wed 10:42:05 AM 38.4947 -96.8922 249° West 394 453 35,900 48 Level Kansas City Center
Wed 10:43:07 AM 38.4572 -97.0211 250° West 390 449 36,000 48 Climbing Kansas City Center
Wed 10:44:09 AM 38.4181 -97.1492 249° West 388 447 36,000 -48 Level Kansas City Center
Wed 10:45:12 AM 38.3719 -97.3047 249° West 393 452 35,900 -48 Descending Kansas City Center
Wed 10:46:14 AM 38.3331 -97.4336 249° West 392 451 35,900  Level Kansas City Center
Wed 10:47:16 AM 38.2928 -97.5664 249° West 393 452 35,900 48 Level Kansas City Center
Wed 10:48:18 AM 38.2550 -97.6908 249° West 391 450 36,000  Climbing Kansas City Center
Wed 10:49:20 AM 38.2167 -97.8183 249° West 390 449 35,900  Descending Kansas City Center
Wed 10:50:22 AM 38.1692 -97.9711 248° West 391 450 36,000  Climbing Kansas City Center
Wed 10:51:24 AM 38.1333 -98.0883 249° West 390 449 35,900 -48 Descending Kansas City Center
Wed 10:52:26 AM 38.0908 -98.2272 249° West 393 452 35,900  Level Kansas City Center
Wed 10:53:28 AM 38.0492 -98.3542 247° West 393 452 35,900  Level Kansas City Center
Wed 10:54:30 AM 38.0103 -98.4808 249° West 387 445 35,900  Level Kansas City Center
Wed 10:55:32 AM 37.9628 -98.6328 248° West 387 445 35,900  Level Kansas City Center
Wed 10:56:34 AM 37.9222 -98.7603 248° West 390 449 35,900  Level Kansas City Center
Wed 10:57:36 AM 37.8817 -98.8869 248° West 389 448 35,900 145 Level Kansas City Center
Wed 10:58:38 AM 37.8414 -99.0133 248° West 389 448 36,200 432 Climbing Kansas City Center
Wed 10:59:41 AM 37.8011 -99.1378 248° West 385 443 36,800 672 Climbing Kansas City Center
Wed 11:00:43 AM 37.7514 -99.2917 248° West 393 452 37,600 581 Climbing Kansas City Center
Wed 11:01:45 AM 37.7092 -99.4186 247° West 392 451 38,000 194 Climbing Kansas City Center
Wed 11:02:47 AM 37.6658 -99.5544 248° West 385 443 38,000 -48 Level Kansas City Center
Wed 11:03:49 AM 37.6256 -99.6747 247° West 387 445 37,900  Descending Kansas City Center
Wed 11:04:51 AM 37.5864 -99.7931 247° West 384 442 38,000 48 Climbing Kansas City Center
Wed 11:05:53 AM 37.5403 -99.9311 247° West 383 441 38,000  Level Kansas City Center
Wed 11:06:55 AM 37.5019 -100.0514 248° West 384 442 38,000 -48 Level Kansas City Center
Wed 11:07:57 AM 37.4550 -100.1900 247° West 384 442 37,900  Descending Kansas City Center
Wed 11:08:59 AM 37.4142 -100.3111 247° West 388 447 38,000  Climbing Kansas City Center
Wed 11:10:01 AM 37.3669 -100.4497 247° West 387 445 37,900 -48 Descending Kansas City Center
Wed 11:11:03 AM 37.3269 -100.5678 247° West 383 441 37,900  Level Kansas City Center
Wed 11:12:05 AM 37.2808 -100.7053 247° West 381 438 37,900  Level Kansas City Center
Wed 11:13:08 AM 37.2408 -100.8208 247° West 378 435 37,900 48 Level Kansas City Center
Wed 11:14:10 AM 37.2011 -100.9369 247° West 376 433 38,000 48 Climbing Kansas City Center
Wed 11:15:12 AM 37.1553 -101.0708 247° West 373 429 38,000  Level Kansas City Center
Wed 11:16:14 AM 37.1161 -101.1856 247° West 373 429 38,000  Level Kansas City Center
Wed 11:17:16 AM 37.0697 -101.3181 246° West 371 427 38,000  Level Kansas City Center
Wed 11:18:18 AM 37.0308 -101.4319 247° West 371 427 38,000 -48 Level Kansas City Center
Wed 11:19:20 AM 36.9839 -101.5636 246° West 371 427 37,900  Descending Kansas City Center
Wed 11:20:22 AM 36.9433 -101.6783 246° West 375 432 38,000 48 Climbing Kansas City Center
Wed 11:21:24 AM 36.8964 -101.8125 246° West 375 432 38,000  Level Kansas City Center
Wed 11:22:12 AM 36.8706 -101.8889 247° West 376 433 38,000  Level Albuquerque Center
Wed 11:23:12 AM 36.8217 -102.0217 245° Southwest 376 433 38,000  Level Albuquerque Center
Wed 11:24:14 AM 36.7806 -102.1372 246° West 379 436 38,000 -48 Level Albuquerque Center
Wed 11:25:17 AM 36.7397 -102.2556 247° West 382 440 37,900  Descending Albuquerque Center
Wed 11:26:18 AM 36.7008 -102.4067 252° West 383 441 38,000  Climbing Albuquerque Center
Wed 11:27:22 AM 36.6719 -102.5322 254° West 380 437 37,900  Descending Albuquerque Center
Wed 11:28:23 AM 36.6425 -102.6631 254° West 380 437 38,000 48 Climbing Albuquerque Center
Wed 11:29:27 AM 36.6142 -102.7825 254° West 377 434 38,000  Level Albuquerque Center
Wed 11:30:27 AM 36.5803 -102.9256 254° West 376 433 38,000  Level Albuquerque Center
Wed 11:31:30 AM 36.5503 -103.0503 253° West 375 432 38,000 -48 Level Albuquerque Center
Wed 11:32:31 AM 36.5217 -103.1756 254° West 374 430 37,900  Descending Albuquerque Center
Wed 11:33:35 AM 36.4914 -103.3011 253° West 376 433 38,000  Climbing Albuquerque Center
Wed 11:34:35 AM 36.4608 -103.4281 253° West 379 436 37,900 -49 Descending Albuquerque Center
Wed 11:35:38 AM 36.4308 -103.5550 254° West 380 437 37,900  Level Albuquerque Center
Wed 11:36:40 AM 36.3997 -103.6819 253° West 381 438 37,900  Level Albuquerque Center
Wed 11:37:40 AM 36.3636 -103.8303 253° West 382 440 37,900  Level Albuquerque Center
Wed 11:38:44 AM 36.3331 -103.9567 253° West 381 438 37,900  Level Albuquerque Center
Wed 11:39:45 AM 36.3025 -104.0794 253° West 376 433 37,900 48 Level Albuquerque Center
Wed 11:40:49 AM 36.2725 -104.1978 253° West 366 421 38,000 48 Climbing Albuquerque Center
Wed 11:41:49 AM 36.2433 -104.3167 253° West 360 414 38,000  Level Albuquerque Center
Wed 11:42:53 AM 36.2142 -104.4367 253° West 362 417 38,000  Level Albuquerque Center
Wed 11:43:55 AM 36.1781 -104.5753 252° West 362 417 38,000  Level Albuquerque Center
Wed 11:44:55 AM 36.1475 -104.6958 253° West 364 419 38,000 -48 Level Albuquerque Center
Wed 11:45:59 AM 36.1175 -104.8167 253° West 366 421 37,900  Descending Albuquerque Center
Wed 11:47:00 AM 36.0844 -104.9419 252° West 375 432 38,000 48 Climbing Albuquerque Center
Wed 11:48:03 AM 36.0533 -105.0647 253° West 375 432 38,000 -48 Level Albuquerque Center
Wed 11:49:05 AM 36.0214 -105.1875 252° West 373 429 37,900 -48 Descending Albuquerque Center
Wed 11:50:08 AM 35.9903 -105.3092 252° West 371 427 37,900 49 Level Albuquerque Center
Wed 11:51:08 AM 35.9547 -105.4481 252° West 363 418 38,000  Climbing Albuquerque Center
Wed 11:52:12 AM 35.9233 -105.5672 252° West 362 417 37,900 -48 Descending Albuquerque Center
Wed 11:53:13 AM 35.8953 -105.6731 252° West 362 417 37,900 50 Level Albuquerque Center
Wed 11:54:13 AM 35.8647 -105.7894 252° West 359 413 38,000  Climbing Albuquerque Center
Wed 11:55:15 AM 35.8278 -105.9314 252° West 363 418 37,900  Descending Albuquerque Center
Wed 11:56:18 AM 35.7950 -106.0497 251° West 365 420 38,000 48 Climbing Albuquerque Center
Wed 11:57:19 AM 35.7644 -106.1703 253° West 369 425 38,000  Level Albuquerque Center
Wed 11:58:23 AM 35.7278 -106.2986 251° West 365 420 38,000  Level Albuquerque Center
Wed 11:59:24 AM 35.6933 -106.4283 252° West 370 426 38,000  Level Albuquerque Center
Wed 12:00:27 PM 35.6597 -106.5542 252° West 370 426 38,000 -48 Level Albuquerque Center
Wed 12:01:28 PM 35.6264 -106.6764 251° West 369 425 37,900 -48 Descending Albuquerque Center
Wed 12:02:32 PM 35.5939 -106.7956 251° West 369 425 37,900 48 Level Albuquerque Center
Wed 12:03:32 PM 35.5586 -106.9261 252° West 375 432 38,000  Climbing Albuquerque Center
Wed 12:04:36 PM 35.5244 -107.0464 251° West 377 434 37,900 -48 Descending Albuquerque Center
Wed 12:05:36 PM 35.4886 -107.1781 252° West 379 436 37,900 48 Level Albuquerque Center
Wed 12:06:40 PM 35.4581 -107.2925 252° West 382 440 38,000  Climbing Albuquerque Center
Wed 12:07:40 PM 35.4181 -107.4325 251° West 388 447 37,900 -484 Descending Albuquerque Center
Wed 12:08:44 PM 35.3847 -107.5519 251° West 387 445 37,000 -912 Descending Albuquerque Center
Wed 12:09:45 PM 35.3447 -107.6922 251° West 389 448 36,000 -492 Descending Albuquerque Center
Wed 12:10:46 PM 35.3103 -107.8119 251° West 389 448 36,000  Level Albuquerque Center
Wed 12:11:47 PM 35.2722 -107.9436 251° West 375 432 36,000 -435 Level Albuquerque Center
Wed 12:12:50 PM 35.2406 -108.0586 251° West 371 427 35,100 -816 Descending Albuquerque Center
Wed 12:13:52 PM 35.2067 -108.1789 251° West 382 440 34,300 -905 Descending Albuquerque Center
Wed 12:14:56 PM 35.1642 -108.3256 251° West 399 459 33,200 -960 Descending Albuquerque Center
Wed 12:15:57 PM 35.1269 -108.4544 251° West 413 475 32,300 -645 Descending Albuquerque Center
Wed 12:16:57 PM 35.0842 -108.6036 251° West 416 479 31,900 -145 Descending Albuquerque Center
Wed 12:18:01 PM 35.0467 -108.7300 250° West 414 476 32,000 48 Climbing Albuquerque Center
Wed 12:19:02 PM 35.0017 -108.8772 250° West 414 476 32,000  Level Albuquerque Center
Wed 12:20:05 PM 34.9650 -109.0028 250° West 412 474 32,000 -49 Level Albuquerque Center
Wed 12:21:05 PM 34.9211 -109.1517 250° West 415 478 31,900 -48 Descending Albuquerque Center
Wed 12:22:09 PM 34.8839 -109.2761 250° West 412 474 31,900  Level Albuquerque Center
Wed 12:23:09 PM 34.8472 -109.3989 250° West 407 468 31,900 48 Level Albuquerque Center
Wed 12:24:13 PM 34.8044 -109.5411 250° West 403 464 32,000  Climbing Albuquerque Center
Wed 12:25:13 PM 34.7683 -109.6611 250° West 398 458 31,900 -48 Descending Albuquerque Center
Wed 12:26:17 PM 34.7253 -109.8006 249° West 396 456 31,900 48 Level Albuquerque Center
Wed 12:27:18 PM 34.6869 -109.9189 249° West 393 452 32,000 49 Climbing Albuquerque Center
Wed 12:28:20 PM 34.6358 -110.0525 245° Southwest 391 450 32,000  Level Albuquerque Center
Wed 12:29:23 PM 34.5953 -110.1694 247° West 392 451 32,000  Level Albuquerque Center
Wed 12:30:24 PM 34.5469 -110.3022 246° West 388 447 32,000 -48 Level Albuquerque Center
Wed 12:31:27 PM 34.5000 -110.4161 243° Southwest 379 436 31,900 -49 Descending Albuquerque Center
Wed 12:32:27 PM 34.4611 -110.5322 248° West 377 434 31,900 -532 Level Albuquerque Center
Wed 12:33:31 PM 34.4172 -110.6447 245° Southwest 364 419 30,800 -1,500 Descending Albuquerque Center
Wed 12:34:31 PM 34.3761 -110.7461 244° Southwest 352 405 28,800 -1,392 Descending Albuquerque Center
Wed 12:35:36 PM 34.3175 -110.8444 234° Southwest 359 413 27,900 -1,381 Descending Albuquerque Center
Wed 12:36:37 PM 34.2497 -110.9308 227° Southwest 357 411 25,900 -2,132 Descending Albuquerque Center
Wed 12:37:37 PM 34.1714 -111.0336 227° Southwest 349 402 23,600 -2,032 Descending Albuquerque Center
Wed 12:38:41 PM 34.1064 -111.1153 226° Southwest 341 392 21,700 -2,032 Descending Albuquerque Center
Wed 12:39:41 PM 34.0444 -111.1956 227° Southwest 332 382 19,400 -1,935 Descending Albuquerque Center
Wed 12:40:45 PM 33.9825 -111.2758 227° Southwest 328 377 17,700 -1,701 Descending Albuquerque Center
Wed 12:41:48 PM 33.9225 -111.3539 227° Southwest 319 367 15,800 -1,597 Descending Albuquerque Center
Wed 12:42:49 PM 33.8636 -111.4319 228° Southwest 314 361 14,400 -885 Descending Albuquerque Center
Wed 12:43:50 PM 33.8114 -111.4994 227° Southwest 277 319 14,000 -738 Descending Albuquerque Center
Wed 12:44:51 PM 33.7578 -111.5692 227° Southwest 238 274 12,900 -1,104 Descending Albuquerque Center
Wed 12:45:55 PM 33.7150 -111.6253 228° Southwest 228 262 11,700 -1,248 Descending Albuquerque Center
Wed 12:46:56 PM 33.6742 -111.6825 229° Southwest 224 258 10,300 -1,200 Descending Albuquerque Center
Wed 12:48:00 PM 33.6325 -111.7419 230° Southwest 230 265 9,200 -1,065 Descending Albuquerque Center
Wed 12:49:00 PM 33.5906 -111.8031 231° Southwest 227 261 8,100 -726 Descending Albuquerque Center
Wed 12:50:04 PM 33.5611 -111.8656 241° Southwest 229 264 7,700 -532 Descending Albuquerque Center
Wed 12:51:04 PM 33.5147 -111.8425 157° South 234 269 7,000 -726 Descending Albuquerque Center
Wed 12:52:08 PM 33.5039 -111.7686 100° East 205 236 6,200 -1,016 Descending Albuquerque Center
Wed 12:53:08 PM 33.4719 -111.8042 223° Southwest 173 199 4,900 -1,220 Descending Albuquerque Center
Wed 12:54:11 PM 33.4489 -111.8603 244° Southwest 174 200 3,700 -1,274 Descending Albuquerque Center
Wed 12:55:01 PM 33.4333 -111.9000 245° Southwest 169 194 2,500 -1,091 Descending Phoenix TRACON
Wed 12:56:01 PM 33.4333 -111.9667 270° West 164 189 1,700 -800 Descending Phoenix TRACON

Login

Don't have an account? Register now (free) for customized features, flight alerts, and more!